Time;durP1;ratioP1;P1;durP2;ratioP2;P2;SDS_P1;SDS_P2;PMS_P1;PMS_P2;Temp;Humidity;BMP_temperature;BMP_pressure;BME280_temperature;BME280_humidity;BME280_pressure;Samples;Min_cycle;Max_cycle;Signal;HPM_P1;HPM_P2
2022/02/25 00:00:18;;;;;;;8.20;2.47;;;;;;;-142.75;100.00;78279.28;5039928;28;20025;-68
2022/02/25 00:02:43;;;;;;;8.83;1.30;;;;;;;-142.75;100.00;78275.34;5043922;28;20268;-70
2022/02/25 00:05:09;;;;;;;7.38;1.23;;;;;;;-142.75;100.00;78281.25;5042668;28;20319;-69
2022/02/25 00:07:34;;;;;;;14.93;1.65;;;;;;;-142.75;100.00;78287.16;5035505;28;20482;-69
2022/02/25 00:10:00;;;;;;;8.27;1.33;;;;;;;-142.75;100.00;78287.16;5038205;28;20044;-70
2022/02/25 00:12:25;;;;;;;13.38;1.63;;;;;;;-142.75;100.00;78283.22;5039694;28;20025;-70
2022/02/25 00:14:52;;;;;;;9.50;1.45;;;;;;;-142.75;100.00;78291.09;5039700;28;20036;-69
2022/02/25 00:17:17;;;;;;;11.17;1.93;;;;;;;-142.75;100.00;78289.13;5048216;23;20065;-67
2022/02/25 00:19:43;;;;;;;7.97;1.52;;;;;;;-142.75;100.00;78287.16;5028449;28;20057;-67
2022/02/25 00:22:08;;;;;;;9.40;1.42;;;;;;;-142.75;100.00;78291.09;5030653;28;20028;-67
2022/02/25 00:24:33;;;;;;;20.47;2.30;;;;;;;-142.75;100.00;78295.06;5030855;28;20025;-67
2022/02/25 00:26:59;;;;;;;12.40;1.43;;;;;;;-142.75;100.00;78300.97;5013010;28;20268;-67
2022/02/25 00:29:24;;;;;;;12.17;1.70;;;;;;;-142.75;100.00;78299.00;5030632;28;20271;-67
2022/02/25 00:31:49;;;;;;;10.95;2.05;;;;;;;-142.75;100.00;78308.84;5030745;28;20090;-67
2022/02/25 00:34:14;;;;;;;11.00;1.63;;;;;;;-142.75;100.00;78300.97;5030102;28;20029;-67
2022/02/25 00:36:40;;;;;;;15.80;1.80;;;;;;;-142.75;100.00;78302.94;5013023;28;20029;-67
2022/02/25 00:39:07;;;;;;;12.07;1.63;;;;;;;-142.75;100.00;78302.94;5012827;28;20649;-67
2022/02/25 00:41:33;;;;;;;5.68;1.40;;;;;;;-142.75;100.00;78297.00;5030763;28;20555;-67
2022/02/25 00:43:58;;;;;;;8.45;1.60;;;;;;;-142.75;100.00;78295.06;5013038;28;20056;-67
2022/02/25 00:46:23;;;;;;;8.85;1.58;;;;;;;-142.75;100.00;78291.09;5030698;28;20105;-67
2022/02/25 00:48:49;;;;;;;8.57;2.47;;;;;;;-142.75;100.00;78287.16;5030299;28;20483;-67
2022/02/25 00:51:15;;;;;;;9.27;1.77;;;;;;;-142.75;100.00;78295.06;5030541;28;20268;-67
2022/02/25 00:53:40;;;;;;;7.00;1.20;;;;;;;-142.75;100.00;78291.09;5030570;28;20052;-67
2022/02/25 00:56:05;;;;;;;9.23;1.58;;;;;;;-142.75;100.00;78299.00;5030740;28;20390;-67
2022/02/25 00:58:31;;;;;;;10.45;2.25;;;;;;;-142.75;100.00;78300.97;5030481;28;20040;-67
2022/02/25 01:00:56;;;;;;;10.32;1.92;;;;;;;-142.75;100.00;78302.94;5030531;28;20036;-68
2022/02/25 01:03:21;;;;;;;10.43;1.42;;;;;;;-142.75;100.00;78295.06;5030615;28;20017;-68
2022/02/25 01:05:46;;;;;;;8.57;1.38;;;;;;;-142.75;100.00;78299.00;5030454;28;20034;-66
2022/02/25 01:08:12;;;;;;;8.88;1.65;;;;;;;-142.75;100.00;78302.94;5030042;28;20029;-68
2022/02/25 01:10:37;;;;;;;10.80;1.48;;;;;;;-142.75;100.00;78302.94;5030463;28;20025;-67
2022/02/25 01:13:04;;;;;;;10.45;1.95;;;;;;;-142.75;100.00;78300.97;5030393;28;20499;-67
2022/02/25 01:15:30;;;;;;;9.55;1.65;;;;;;;-142.75;100.00;78289.13;5030455;28;21440;-67
2022/02/25 01:17:55;;;;;;;;;;;;;;;-142.75;100.00;78285.19;5030445;28;20398;-67
2022/02/25 01:20:20;;;;;;;13.43;2.17;;;;;;;-142.75;100.00;78299.00;5030370;28;19919;-67
2022/02/25 01:22:46;;;;;;;7.22;1.23;;;;;;;-142.75;100.00;78289.13;5030225;28;20434;-67
2022/02/25 01:25:13;;;;;;;11.80;1.67;;;;;;;-142.75;100.00;78291.09;5030353;28;20028;-67
2022/02/25 01:27:38;;;;;;;15.70;1.83;;;;;;;-142.75;100.00;78297.00;5026593;28;20029;-67
2022/02/25 01:30:05;;;;;;;8.02;1.70;;;;;;;-142.75;100.00;78291.09;5049971;28;20035;-67
2022/02/25 01:32:30;;;;;;;14.73;2.40;;;;;;;-142.75;100.00;78285.19;5050050;28;20438;-67
2022/02/25 01:34:57;;;;;;;7.30;1.85;;;;;;;-142.75;100.00;78285.19;5050112;28;20029;-67
2022/02/25 01:37:22;;;;;;;;;;;;;;;-142.75;100.00;78291.09;5050330;28;20057;-67
2022/02/25 01:39:47;;;;;;;11.80;2.57;;;;;;;-142.75;100.00;78291.09;5049826;28;20430;-67
2022/02/25 01:42:13;;;;;;;11.43;1.88;;;;;;;-142.75;100.00;78289.13;5050001;28;20017;-67
2022/02/25 01:44:40;;;;;;;14.23;2.05;;;;;;;-142.75;100.00;78295.06;5050111;28;20083;-67
2022/02/25 01:47:06;;;;;;;8.03;1.80;;;;;;;-142.75;100.00;78295.06;5052753;28;20409;-67
2022/02/25 01:49:32;;;;;;;;;;;;;;;-142.75;100.00;78287.16;5053703;28;20025;-67
2022/02/25 01:52:01;;;;;;;7.40;1.63;;;;;;;-142.75;100.00;78283.22;5053350;28;19971;-67
2022/02/25 01:54:28;;;;;;;10.63;2.30;;;;;;;-142.75;100.00;78287.16;5053540;28;20037;-67
2022/02/25 01:57:00;;;;;;;9.83;1.73;;;;;;;-142.75;100.00;78287.16;5053385;28;20036;-67
2022/02/25 01:59:27;;;;;;;9.63;2.30;;;;;;;-142.75;100.00;78287.16;5053207;28;20044;-67
2022/02/25 02:01:53;;;;;;;13.13;1.93;;;;;;;-142.75;100.00;78283.22;5053307;28;20017;-67
2022/02/25 02:04:19;;;;;;;16.10;2.25;;;;;;;-142.75;100.00;78283.22;5053309;28;20087;-67
2022/02/25 02:06:44;;;;;;;10.23;1.70;;;;;;;-142.75;100.00;78279.28;5053160;28;20025;-67
2022/02/25 02:09:10;;;;;;;15.23;3.03;;;;;;;-142.75;100.00;78281.25;5053317;28;20491;-67
2022/02/25 02:11:40;;;;;;;11.63;2.92;;;;;;;-142.75;100.00;78283.22;5053284;28;20032;-67
2022/02/25 02:14:12;;;;;;;10.80;2.83;;;;;;;-142.75;100.00;78279.28;5053205;28;20043;-67
2022/02/25 02:16:38;;;;;;;13.33;2.13;;;;;;;-142.75;100.00;78273.38;5052873;28;20517;-67
2022/02/25 02:19:03;;;;;;;16.67;2.55;;;;;;;-142.75;100.00;78271.41;5052604;28;20032;-67
2022/02/25 02:21:30;;;;;;;11.10;1.95;;;;;;;-142.75;100.00;78275.34;5035134;28;20029;-67
2022/02/25 02:23:57;;;;;;;12.97;2.33;;;;;;;-142.75;100.00;78279.28;5052845;28;20021;-67
2022/02/25 02:26:25;;;;;;;11.57;1.53;;;;;;;-142.75;100.00;78271.41;5052772;28;20024;-67
2022/02/25 02:28:51;;;;;;;11.30;2.23;;;;;;;-142.75;100.00;78287.16;5052657;28;20024;-67
2022/02/25 02:31:17;;;;;;;11.68;1.85;;;;;;;-142.75;100.00;78289.13;5052727;28;20028;-67
2022/02/25 02:33:43;;;;;;;12.90;2.05;;;;;;;-142.75;100.00;78281.25;5052667;28;20028;-68
2022/02/25 02:36:09;;;;;;;16.65;2.08;;;;;;;-142.75;100.00;78283.22;5052593;28;20506;-67
2022/02/25 02:38:35;;;;;;;;;;;;;;;-142.75;100.00;78289.13;5052873;28;20413;-67
2022/02/25 02:41:01;;;;;;;12.37;1.40;;;;;;;-142.75;100.00;78287.16;5052586;28;19912;-68
2022/02/25 02:43:26;;;;;;;14.75;1.88;;;;;;;-142.75;100.00;78291.09;5052590;28;20036;-68
2022/02/25 02:45:52;;;;;;;12.75;1.75;;;;;;;-142.75;100.00;78293.06;5052509;28;20056;-68
2022/02/25 02:48:17;;;;;;;26.05;2.33;;;;;;;-142.75;100.00;78291.09;5052133;28;20094;-68
2022/02/25 02:50:43;;;;;;;13.77;2.30;;;;;;;-142.75;100.00;78287.16;5034654;28;20115;-68
2022/02/25 02:53:09;;;;;;;8.02;2.13;;;;;;;-142.75;100.00;78293.06;5052458;28;20777;-68
2022/02/25 02:55:34;;;;;;;8.23;1.77;;;;;;;-142.75;100.00;78293.06;5052445;28;20029;-67
2022/02/25 02:58:00;;;;;;;13.63;2.97;;;;;;;-142.75;100.00;78289.13;5051260;28;20016;-68
2022/02/25 03:00:25;;;;;;;17.52;2.42;;;;;;;-142.75;100.00;78289.13;5052348;28;20021;-67
2022/02/25 03:02:50;;;;;;;11.02;1.98;;;;;;;-142.75;100.00;78283.22;5052096;28;20025;-68
2022/02/25 03:05:18;;;;;;;18.48;2.42;;;;;;;-142.75;100.00;78287.16;5052424;28;20547;-67
2022/02/25 03:07:44;;;;;;;14.83;2.23;;;;;;;-142.75;100.00;78289.13;5052231;28;20028;-68
2022/02/25 03:10:10;;;;;;;14.30;2.70;;;;;;;-142.75;100.00;78297.00;5051924;28;20487;-68
2022/02/25 03:12:36;;;;;;;12.07;2.23;;;;;;;-142.75;100.00;78287.16;5051874;28;20021;-68
2022/02/25 03:15:02;;;;;;;18.85;3.03;;;;;;;-142.75;100.00;78285.19;5052055;28;20082;-67
2022/02/25 03:17:27;;;;;;;12.53;1.80;;;;;;;-142.75;100.00;78295.06;5051532;28;20052;-68
2022/02/25 03:19:53;;;;;;;11.38;2.25;;;;;;;-142.75;100.00;78287.16;5051669;28;20067;-67
2022/02/25 03:22:18;;;;;;;18.80;2.60;;;;;;;-142.75;100.00;78281.25;5051833;28;20065;-67
2022/02/25 03:24:44;;;;;;;11.00;1.80;;;;;;;-142.75;100.00;78297.00;5051875;28;20029;-67
2022/02/25 03:27:09;;;;;;;12.53;2.27;;;;;;;-142.75;100.00;78295.06;5051686;28;20646;-67
2022/02/25 03:29:34;;;;;;;20.23;2.97;;;;;;;-142.75;100.00;78304.91;5051441;28;20799;-68
2022/02/25 03:32:00;;;;;;;12.50;2.00;;;;;;;-142.75;100.00;78299.00;5051531;28;20298;-68
2022/02/25 03:34:25;;;;;;;22.20;2.53;;;;;;;-142.75;100.00;78306.88;5051567;28;20056;-67
2022/02/25 03:36:50;;;;;;;23.00;2.53;;;;;;;-142.75;100.00;78304.91;5051616;28;20275;-67
2022/02/25 03:39:16;;;;;;;15.65;2.45;;;;;;;-142.75;100.00;78302.94;5051268;28;20026;-67
2022/02/25 03:41:41;;;;;;;18.23;2.53;;;;;;;-142.75;100.00;78302.94;5051573;28;20028;-68
2022/02/25 03:44:07;;;;;;;13.20;2.20;;;;;;;-142.75;100.00;78308.84;5051512;28;20032;-67
2022/02/25 03:46:32;;;;;;;10.70;2.03;;;;;;;-142.75;100.00;78318.69;5051226;28;20268;-67
2022/02/25 03:48:57;;;;;;;13.73;2.13;;;;;;;-142.75;100.00;78312.78;5051130;28;20025;-68
2022/02/25 03:51:23;;;;;;;12.10;1.93;;;;;;;-142.75;100.00;78316.72;5051244;28;20132;-67
2022/02/25 03:53:50;;;;;;;22.45;2.35;;;;;;;-142.75;100.00;78318.69;5033499;28;20017;-67
2022/02/25 03:56:16;;;;;;;14.00;2.20;;;;;;;-142.75;100.00;78328.53;5051118;28;20028;-67
2022/02/25 03:58:42;;;;;;;10.73;2.07;;;;;;;-142.75;100.00;78328.53;5050951;28;20021;-67
2022/02/25 04:01:08;;;;;;;12.63;2.03;;;;;;;-142.75;100.00;78334.44;5033086;28;20016;-68
2022/02/25 04:03:33;;;;;;;12.23;2.47;;;;;;;-142.75;100.00;78344.28;5051132;28;20478;-67
2022/02/25 04:05:58;;;;;;;12.67;1.70;;;;;;;-142.75;100.00;78346.25;5051006;28;20116;-67
2022/02/25 04:08:24;;;;;;;20.43;2.73;;;;;;;-142.75;100.00;78336.41;5050735;28;20779;-68
2022/02/25 04:10:49;;;;;;;11.40;2.08;;;;;;;-142.75;100.00;78346.25;5049477;28;20275;-68
2022/02/25 04:13:14;;;;;;;15.43;2.17;;;;;;;-142.75;100.00;78334.44;5031106;28;20029;-68
2022/02/25 04:15:40;;;;;;;10.20;1.90;;;;;;;-142.75;100.00;78330.50;5031004;28;20379;-67
2022/02/25 04:18:05;;;;;;;10.55;2.08;;;;;;;-142.75;100.00;78326.56;5012802;28;20075;-67
2022/02/25 04:20:31;;;;;;;9.18;1.60;;;;;;;-142.75;100.00;78322.63;5031409;28;20048;-67
2022/02/25 04:22:56;;;;;;;10.57;1.80;;;;;;;-142.75;100.00;78326.56;5030989;28;20024;-67
2022/02/25 04:25:21;;;;;;;12.80;1.98;;;;;;;-142.75;100.00;78310.81;5031023;28;20018;-67
2022/02/25 04:27:47;;;;;;;16.45;1.85;;;;;;;-142.75;100.00;78304.91;5030735;28;20100;-67
2022/02/25 04:30:13;;;;;;;15.23;2.22;;;;;;;-142.75;100.00;78291.09;5030808;28;20021;-67
2022/02/25 04:32:38;;;;;;;;;;;;;;;-142.75;100.00;78283.22;5031239;28;20033;-68
2022/02/25 04:35:05;;;;;;;17.93;2.40;;;;;;;-142.75;100.00;78277.31;5030872;28;19919;-68
2022/02/25 04:37:30;;;;;;;16.70;3.00;;;;;;;-142.75;100.00;78279.28;5030826;28;20028;-68
2022/02/25 04:39:56;;;;;;;14.73;2.25;;;;;;;-142.75;100.00;78271.41;5030486;28;20021;-68
2022/02/25 04:42:25;;;;;;;12.13;2.13;;;;;;;-142.75;100.00;78269.44;5030821;28;20024;-67
2022/02/25 04:44:50;;;;;;;18.70;2.77;;;;;;;-142.75;100.00;78267.47;5030594;28;20029;-67
2022/02/25 04:47:15;;;;;;;19.83;2.43;;;;;;;-142.75;100.00;78259.59;5030706;28;20510;-68
2022/02/25 04:49:40;;;;;;;17.02;3.17;;;;;;;-142.75;100.00;78247.78;5030437;28;20282;-68
2022/02/25 04:52:06;;;;;;;15.13;2.25;;;;;;;-142.75;100.00;78235.97;5030654;28;20120;-68
2022/02/25 04:54:32;;;;;;;26.05;2.85;;;;;;;-142.75;100.00;78232.03;5030596;28;20030;-67
2022/02/25 04:56:58;;;;;;;11.05;2.42;;;;;;;-142.75;100.00;78241.88;5030631;28;20635;-67
2022/02/25 04:59:23;;;;;;;16.00;2.10;;;;;;;-142.75;100.00;78249.75;5030177;28;20033;-68
2022/02/25 05:01:48;;;;;;;12.15;2.25;;;;;;;-142.75;100.00;78257.63;5030636;28;20013;-67
2022/02/25 05:04:14;;;;;;;17.80;2.30;;;;;;;-142.75;100.00;78247.78;5030535;28;20029;-67
2022/02/25 05:06:39;;;;;;;14.25;1.70;;;;;;;-142.75;100.00;78251.72;5030501;28;20510;-68
2022/02/25 05:09:05;;;;;;;14.88;2.40;;;;;;;-142.75;100.00;78271.41;5030251;28;21457;-68
2022/02/25 05:11:30;;;;;;;18.25;2.28;;;;;;;-142.75;100.00;78271.41;5030563;28;20033;-67
2022/02/25 05:13:56;;;;;;;13.30;2.17;;;;;;;-142.75;100.00;78277.31;5030602;28;20021;-67
2022/02/25 05:20:15;;;;;;;15.10;2.20;;;;;;;-142.75;100.00;78275.34;5030201;28;20045;-67
2022/02/25 05:21:50;;;;;;;22.33;2.73;;;;;;;-142.75;100.00;78279.28;5032469;28;20112;-67
2022/02/25 05:24:15;;;;;;;20.00;2.88;;;;;;;-142.75;100.00;78283.22;5034169;28;20059;-67
2022/02/25 05:26:41;;;;;;;19.00;3.17;;;;;;;-142.75;100.00;78287.16;5033380;28;20132;-67
2022/02/25 05:29:06;;;;;;;13.23;2.17;;;;;;;-142.75;100.00;78283.22;5033741;28;20278;-67
2022/02/25 05:31:33;;;;;;;18.87;2.67;;;;;;;-142.75;100.00;78291.09;5016347;28;20040;-67
2022/02/25 05:33:58;;;;;;;11.57;3.00;;;;;;;-142.75;100.00;78287.16;5034010;28;20490;-68
2022/02/25 05:36:23;;;;;;;17.17;2.53;;;;;;;-142.75;100.00;78289.13;5033936;28;20056;-68
2022/02/25 05:38:49;;;;;;;20.20;4.30;;;;;;;-142.75;100.00;78293.06;5033743;28;20730;-67
2022/02/25 05:41:16;;;;;;;20.90;3.33;;;;;;;-142.75;100.00;78295.06;5033884;28;20082;-68
2022/02/25 05:43:42;;;;;;;16.23;2.50;;;;;;;-142.75;100.00;78291.09;5033763;28;20041;-67
2022/02/25 05:46:07;;;;;;;20.65;3.17;;;;;;;-142.75;100.00;78293.06;5033789;28;20049;-67
2022/02/25 05:48:33;;;;;;;15.00;3.03;;;;;;;-142.75;100.00;78293.06;5033455;28;20029;-67
2022/02/25 05:50:58;;;;;;;20.05;2.80;;;;;;;-142.75;100.00;78299.00;5033745;28;20487;-68
2022/02/25 05:53:24;;;;;;;16.80;2.33;;;;;;;-142.75;100.00;78295.06;5033797;28;20071;-67
2022/02/25 05:55:49;;;;;;;17.02;2.55;;;;;;;-142.75;100.00;78293.06;5033719;28;20083;-68
2022/02/25 05:58:14;;;;;;;16.40;2.60;;;;;;;-142.75;100.00;78291.09;5015853;28;20032;-67
2022/02/25 06:00:41;;;;;;;16.48;2.65;;;;;;;-142.75;100.00;78283.22;5033572;28;20025;-67
2022/02/25 06:03:06;;;;;;;;;;;;;;;-142.75;100.00;78283.22;5033949;28;20399;-68
2022/02/25 06:05:32;;;;;;;10.37;2.07;;;;;;;-142.75;100.00;78287.16;5033350;28;19916;-68
2022/02/25 06:08:00;;;;;;;15.00;2.47;;;;;;;-142.75;100.00;78275.34;5033075;28;20025;-67
2022/02/25 06:10:26;;;;;;;10.73;2.00;;;;;;;-142.75;100.00;78285.19;5033212;28;20025;-67
2022/02/25 06:12:52;;;;;;;14.73;2.95;;;;;;;-142.75;100.00;78287.16;5033254;28;20091;-67
2022/02/25 06:15:17;;;;;;;13.05;1.90;;;;;;;-142.75;100.00;78295.06;5033216;28;20494;-67
2022/02/25 06:17:44;;;;;;;15.97;3.10;;;;;;;-142.75;100.00;78297.00;5055108;22;20097;-69
2022/02/25 06:20:10;;;;;;;16.93;2.40;;;;;;;-142.75;100.00;78300.97;5017009;28;20279;-69
2022/02/25 06:22:35;;;;;;;15.55;2.45;;;;;;;-142.75;100.00;78302.94;5044676;28;20021;-69
2022/02/25 06:25:01;;;;;;;13.07;1.87;;;;;;;-142.75;100.00;78304.91;5040159;28;20589;-70
2022/02/25 06:27:26;;;;;;;14.73;2.03;;;;;;;-142.75;100.00;78304.91;5053022;28;20320;-69
2022/02/25 06:29:51;;;;;;;11.10;1.83;;;;;;;-142.75;100.00;78300.97;5051435;28;20370;-69
2022/02/25 06:32:17;;;;;;;21.57;2.67;;;;;;;-142.75;100.00;78304.91;5044345;28;20294;-67
2022/02/25 06:34:42;;;;;;;13.90;2.05;;;;;;;-142.75;100.00;78299.00;5034205;28;20279;-69
2022/02/25 06:37:08;;;;;;;16.77;2.80;;;;;;;-142.75;100.00;78304.91;5046911;28;20128;-69
2022/02/25 06:39:33;;;;;;;11.97;1.87;;;;;;;-142.75;100.00;78306.88;5050472;28;20498;-68
2022/02/25 06:41:58;;;;;;;18.13;2.35;;;;;;;-142.75;100.00;78304.91;5051355;28;20028;-68
2022/02/25 06:44:23;;;;;;;16.92;2.10;;;;;;;-142.75;100.00;78316.72;5037804;28;20045;-71
2022/02/25 06:46:49;;;;;;;10.25;2.15;;;;;;;-142.75;100.00;78314.75;5043052;28;20068;-69
2022/02/25 06:49:14;;;;;;;15.63;2.17;;;;;;;-142.75;100.00;78304.91;5032973;28;20063;-69
2022/02/25 06:51:39;;;;;;;8.03;1.67;;;;;;;-142.75;100.00;78306.88;5047500;28;20029;-69
2022/02/25 06:54:05;;;;;;;9.35;2.13;;;;;;;-142.75;100.00;78312.78;5014569;28;20347;-69
2022/02/25 06:56:30;;;;;;;17.40;2.28;;;;;;;-142.75;100.00;78308.84;5044989;28;20441;-70
2022/02/25 06:58:56;;;;;;;15.52;2.08;;;;;;;-142.75;100.00;78310.81;5039242;28;20031;-69
2022/02/25 07:01:21;;;;;;;14.35;3.08;;;;;;;-142.75;100.00;78312.78;5049771;28;20025;-68
2022/02/25 07:03:47;;;;;;;13.55;2.53;;;;;;;-142.75;100.00;78306.88;5052337;28;20029;-69
2022/02/25 07:06:12;;;;;;;12.05;3.08;;;;;;;-142.75;100.00;78312.78;5042030;28;20025;-69
2022/02/25 07:08:37;;;;;;;13.05;1.83;;;;;;;-142.75;100.00;78312.78;5037612;28;20028;-69
2022/02/25 07:11:02;;;;;;;15.38;2.55;;;;;;;-142.75;100.00;78312.78;5047788;28;20020;-69
2022/02/25 07:13:28;;;;;;;21.58;2.58;;;;;;;-142.75;100.00;78318.69;5045706;28;20167;-70
2022/02/25 07:15:55;;;;;;;9.63;2.13;;;;;;;-142.75;100.00;78312.78;5044673;28;20471;-69
2022/02/25 07:18:21;;;;;;;18.67;3.23;;;;;;;-142.75;100.00;78310.81;5038259;28;20028;-69
2022/02/25 07:20:47;;;;;;;22.15;3.45;;;;;;;-142.75;100.00;78318.69;5051856;28;20035;-69
2022/02/25 07:23:13;;;;;;;19.38;2.40;;;;;;;-142.75;100.00;78318.69;5041261;28;20025;-71
2022/02/25 07:25:39;;;;;;;10.75;2.47;;;;;;;-142.75;100.00;78324.59;5028461;28;20052;-69
2022/02/25 07:28:05;;;;;;;14.40;2.72;;;;;;;-142.75;100.00;78326.56;5047492;28;20436;-69
2022/02/25 07:30:31;;;;;;;19.20;3.00;;;;;;;-142.75;100.00;78332.47;5046418;28;20040;-69
2022/02/25 07:32:56;;;;;;;11.23;1.98;;;;;;;-142.75;100.00;78332.47;5046938;28;20414;-69
2022/02/25 07:35:22;;;;;;;20.08;2.80;;;;;;;-142.75;100.00;78340.34;5040103;28;20403;-69
2022/02/25 07:37:47;;;;;;;;;;;;;;;-142.75;100.00;78324.59;5036820;28;20044;-68
2022/02/25 07:40:13;;;;;;;15.50;2.77;;;;;;;-142.75;100.00;78322.63;5046058;28;19920;-69
2022/02/25 07:42:40;;;;;;;14.20;2.25;;;;;;;-142.75;100.00;78326.56;5033673;28;20024;-72
2022/02/25 07:45:06;;;;;;;13.87;2.70;;;;;;;-142.75;100.00;78326.56;5034924;28;20017;-70
2022/02/25 07:47:31;;;;;;;20.13;2.38;;;;;;;-142.75;100.00;78316.72;5031447;28;20391;-71
2022/02/25 07:49:57;;;;;;;16.23;2.53;;;;;;;-142.75;100.00;78316.72;5047605;28;20035;-70
2022/02/25 07:52:23;;;;;;;11.27;1.85;;;;;;;-142.75;100.00;78300.97;5049800;28;20028;-71
2022/02/25 07:54:48;;;;;;;17.17;3.03;;;;;;;-142.75;100.00;78283.22;5050376;28;20125;-69
2022/02/25 07:57:14;;;;;;;20.63;2.20;;;;;;;-142.75;100.00;78253.69;5049594;28;20025;-69
2022/02/25 07:59:41;;;;;;;15.07;2.13;;;;;;;-142.75;100.00;78235.97;5032209;28;20032;-69
2022/02/25 08:02:07;;;;;;;15.73;2.60;;;;;;;-142.75;100.00;78235.97;5050300;28;20021;-69
2022/02/25 08:04:32;;;;;;;14.82;2.08;;;;;;;-142.75;100.00;78247.78;5050207;28;20051;-69
2022/02/25 08:06:59;;;;;;;13.50;2.60;;;;;;;-142.75;100.00;78267.47;5031956;28;20024;-70
2022/02/25 08:09:24;;;;;;;8.17;2.00;;;;;;;-142.75;100.00;78291.09;5049880;28;20279;-70
2022/02/25 08:11:49;;;;;;;10.73;2.17;;;;;;;-142.75;100.00;78306.88;5049887;28;20035;-69
2022/02/25 08:14:15;;;;;;;16.58;2.53;;;;;;;-142.75;100.00;78314.75;5032056;28;20029;-69
2022/02/25 08:16:40;;;;;;;15.85;2.42;;;;;;;-142.75;100.00;78308.84;5049825;28;20033;-71
2022/02/25 08:19:07;;;;;;;12.88;2.05;;;;;;;-142.75;100.00;78271.41;5049746;28;20402;-70
2022/02/25 08:21:34;;;;;;;18.87;2.50;;;;;;;-142.75;100.00;78243.84;5048754;28;20529;-70
2022/02/25 08:23:59;;;;;;;16.43;2.40;;;;;;;-142.75;100.00;78239.91;5048056;28;20111;-68
2022/02/25 08:26:24;;;;;;;12.80;2.10;;;;;;;-142.75;100.00;78241.88;5029991;28;20128;-70
2022/02/25 08:28:51;;;;;;;16.67;2.55;;;;;;;-142.75;100.00;78261.56;5047769;28;20029;-69
2022/02/25 08:31:17;;;;;;;11.80;2.10;;;;;;;-142.75;100.00;78271.41;5046346;28;20505;-71
2022/02/25 08:33:42;;;;;;;16.63;1.95;;;;;;;-142.75;100.00;78275.34;5047840;28;20100;-68
2022/02/25 08:36:07;;;;;;;9.83;2.33;;;;;;;-142.75;100.00;78273.38;5038726;28;20029;-69
2022/02/25 08:38:33;;;;;;;18.58;2.55;;;;;;;-142.75;100.00;78283.22;5028913;28;20034;-69
2022/02/25 08:40:58;;;;;;;16.35;2.10;;;;;;;-142.75;100.00;78283.22;5028557;28;20021;-68
2022/02/25 08:43:24;;;;;;;13.65;2.15;;;;;;;-142.75;100.00;78285.19;5038236;28;20025;-70
2022/02/25 08:45:50;;;;;;;15.35;2.22;;;;;;;-142.75;100.00;78279.28;5022387;28;20022;-69
2022/02/25 08:48:16;;;;;;;;;;;;;;;-142.75;100.00;78295.06;5029763;28;20037;-68
2022/02/25 08:50:42;;;;;;;16.27;2.10;;;;;;;-142.75;100.00;78302.94;5029130;28;19919;-69
2022/02/25 08:53:08;;;;;;;17.83;2.67;;;;;;;-142.75;100.00;78289.13;5029086;28;20437;-69
2022/02/25 08:55:34;;;;;;;10.30;2.35;;;;;;;-142.75;100.00;78300.97;5014915;28;20061;-68
2022/02/25 08:57:59;;;;;;;14.88;2.33;;;;;;;-142.75;100.00;78318.69;5035144;28;20124;-68
2022/02/25 09:00:25;;;;;;;12.98;2.53;;;;;;;-142.75;100.00;78320.66;5035713;28;20093;-69
2022/02/25 09:02:52;;;;;;;21.45;2.92;;;;;;;-142.75;100.00;78322.63;5034488;28;20045;-68
2022/02/25 09:05:19;;;;;;;14.40;2.20;;;;;;;-142.75;100.00;78316.72;5034195;28;20040;-68
2022/02/25 09:07:45;;;;;;;16.50;2.30;;;;;;;-142.75;100.00;78310.81;5039387;28;20414;-68
2022/02/25 09:10:12;;;;;;;18.60;3.00;;;;;;;-142.75;100.00;78299.00;5013586;28;20104;-68
2022/02/25 09:12:38;;;;;;;18.20;3.03;;;;;;;-142.75;100.00;78299.00;5031750;28;20104;-68
2022/02/25 09:15:05;;;;;;;12.57;1.85;;;;;;;-142.75;100.00;78299.00;5032588;28;20112;-69
2022/02/25 09:17:31;;;;;;;18.73;3.53;;;;;;;-142.75;100.00;78312.78;5032351;28;20502;-70
2022/02/25 09:19:56;;;;;;;19.27;2.55;;;;;;;-142.75;100.00;78300.97;5034869;28;20115;-71
2022/02/25 09:22:22;;;;;;;12.48;1.80;;;;;;;-142.75;100.00;78293.06;5032877;28;20643;-69
2022/02/25 09:24:47;;;;;;;20.13;2.22;;;;;;;-142.75;100.00;78253.69;5033253;28;20021;-69
2022/02/25 09:27:13;;;;;;;17.48;2.33;;;;;;;-142.75;100.00;78263.53;5032754;28;20033;-70
2022/02/25 09:29:39;;;;;;;19.48;2.88;;;;;;;-142.75;100.00;78263.53;5050951;28;20025;-69
2022/02/25 09:32:06;;;;;;;13.63;2.80;;;;;;;-142.75;100.00;78261.56;5052556;28;20029;-69
2022/02/25 09:34:31;;;;;;;15.03;2.13;;;;;;;-142.75;100.00;78271.41;5052858;28;20029;-70
2022/02/25 09:36:56;;;;;;;14.95;2.50;;;;;;;-142.75;100.00;78277.31;5052496;28;20039;-74
2022/02/25 09:39:22;;;;;;;14.07;2.15;;;;;;;-142.75;100.00;78277.31;5031444;28;20363;-70
2022/02/25 09:41:50;;;;;;;13.93;2.60;;;;;;;-142.75;100.00;78293.06;5015218;28;20028;-69
2022/02/25 09:44:16;;;;;;;18.70;2.93;;;;;;;-142.75;100.00;78310.81;5046130;28;20298;-70
2022/02/25 09:46:46;;;;;;;21.85;2.85;;;;;;;-142.75;100.00;78318.69;5052497;28;20033;-72
2022/02/25 09:49:13;;;;;;;12.23;2.37;;;;;;;-142.75;100.00;78314.75;5052483;28;20024;-70
2022/02/25 09:51:38;;;;;;;13.83;2.10;;;;;;;-142.75;100.00;78330.50;5052254;28;20053;-69
2022/02/25 09:54:06;;;;;;;12.25;2.05;;;;;;;-142.75;100.00;78346.25;5034864;28;20060;-70
2022/02/25 09:56:32;;;;;;;16.63;2.07;;;;;;;-142.75;100.00;78336.41;5052424;28;20512;-71
2022/02/25 09:58:58;;;;;;;9.43;1.87;;;;;;;-142.75;100.00;78338.38;5042463;28;20506;-70
2022/02/25 10:01:33;;;;;;;12.60;2.15;;;;;;;-142.75;100.00;78342.31;5014942;28;20025;-73
2022/02/25 10:04:09;;;;;;;12.17;1.97;;;;;;;-142.75;100.00;78342.31;5044771;28;20029;-70
2022/02/25 10:06:35;;;;;;;15.18;2.13;;;;;;;-142.75;100.00;78330.50;5041712;28;20494;-70
2022/02/25 10:09:12;;;;;;;15.67;2.60;;;;;;;-142.75;100.00;78318.69;5036386;28;20029;-70
2022/02/25 10:12:00;;;;;;;13.20;2.10;;;;;;;-142.75;100.00;78259.59;5031174;28;20267;-70
2022/02/25 10:14:30;;;;;;;24.23;2.73;;;;;;;-142.75;100.00;78255.66;5030999;28;20500;-69
2022/02/25 10:17:23;;;;;;;9.87;1.93;;;;;;;-142.75;100.00;78247.78;5030746;28;20035;-70
2022/02/25 10:19:54;;;;;;;18.03;2.37;;;;;;;-142.75;100.00;78267.47;5051640;28;20025;-70
2022/02/25 10:22:24;;;;;;;14.87;2.90;;;;;;;-142.75;100.00;78287.16;5016197;28;20442;-70
2022/02/25 10:24:58;;;;;;;10.73;2.20;;;;;;;-142.75;100.00;78279.28;5014250;28;20108;-70
2022/02/25 10:27:45;;;;;;;12.80;2.23;;;;;;;-142.75;100.00;78263.53;5030395;28;20040;-70
2022/02/25 10:30:14;;;;;;;18.57;2.53;;;;;;;-142.75;100.00;78251.72;5031327;28;20112;-69
2022/02/25 10:32:51;;;;;;;20.60;2.37;;;;;;;-142.75;100.00;78224.16;5031544;28;20032;-71
2022/02/25 10:35:23;;;;;;;14.10;3.13;;;;;;;-142.75;100.00;78218.25;5031740;28;20025;-70
2022/02/25 10:37:56;;;;;;;17.67;2.73;;;;;;;-142.75;100.00;78222.19;5031671;28;20036;-69
2022/02/25 10:40:22;;;;;;;14.10;2.03;;;;;;;-142.75;100.00;78204.47;5030741;28;20025;-69
2022/02/25 10:42:47;;;;;;;14.77;2.70;;;;;;;-142.75;100.00;78184.78;5014231;28;20018;-69
2022/02/25 10:45:26;;;;;;;18.52;2.88;;;;;;;-142.75;100.00;78161.13;5036766;28;20031;-71
2022/02/25 10:47:51;;;;;;;14.90;2.10;;;;;;;-142.75;100.00;78117.81;5051261;28;20029;-69
2022/02/25 10:50:17;;;;;;;18.88;2.83;;;;;;;-142.75;100.00;78131.59;5051463;28;20092;-69
2022/02/25 10:52:45;;;;;;;10.63;2.45;;;;;;;-142.75;100.00;78129.63;5051576;28;20113;-69
2022/02/25 10:55:22;;;;;;;14.07;2.37;;;;;;;-142.75;100.00;78153.25;5033665;28;20578;-70
2022/02/25 10:57:50;;;;;;;16.37;2.17;;;;;;;-142.75;100.00;78161.13;5046480;28;20022;-69
2022/02/25 11:00:17;;;;;;;13.93;2.20;;;;;;;-142.75;100.00;78200.53;5030916;28;20026;-72
2022/02/25 11:02:47;;;;;;;11.07;2.13;;;;;;;-142.75;100.00;78161.13;5031630;28;20018;-69